sensor_id;sensor_type;location;lat;lon;timestamp;P1;durP1;ratioP1;P2;durP2;ratioP2
8871;SDS011;4472;52.092;9.820;2023-10-09T00:00:54;3.30;;;2.70;;
8871;SDS011;4472;52.092;9.820;2023-10-09T00:03:48;5.20;;;2.70;;
8871;SDS011;4472;52.092;9.820;2023-10-09T00:06:38;5.70;;;3.10;;
8871;SDS011;4472;52.092;9.820;2023-10-09T00:09:27;4.40;;;2.63;;
8871;SDS011;4472;52.092;9.820;2023-10-09T00:12:18;7.50;;;2.80;;
8871;SDS011;4472;52.092;9.820;2023-10-09T00:15:09;3.60;;;2.70;;
8871;SDS011;4472;52.092;9.820;2023-10-09T00:17:57;3.87;;;2.30;;
8871;SDS011;4472;52.092;9.820;2023-10-09T00:20:47;5.93;;;3.30;;
8871;SDS011;4472;52.092;9.820;2023-10-09T00:23:39;7.03;;;3.07;;
8871;SDS011;4472;52.092;9.820;2023-10-09T00:26:27;4.43;;;2.60;;
8871;SDS011;4472;52.092;9.820;2023-10-09T00:29:17;6.60;;;2.87;;
8871;SDS011;4472;52.092;9.820;2023-10-09T00:32:08;3.20;;;2.70;;
8871;SDS011;4472;52.092;9.820;2023-10-09T00:34:58;6.20;;;2.93;;
8871;SDS011;4472;52.092;9.820;2023-10-09T00:38:07;14.33;;;3.27;;
8871;SDS011;4472;52.092;9.820;2023-10-09T00:41:01;4.80;;;3.23;;
8871;SDS011;4472;52.092;9.820;2023-10-09T00:43:57;9.67;;;3.47;;
8871;SDS011;4472;52.092;9.820;2023-10-09T00:46:44;7.87;;;3.40;;
8871;SDS011;4472;52.092;9.820;2023-10-09T00:49:32;6.67;;;3.83;;
8871;SDS011;4472;52.092;9.820;2023-10-09T00:52:23;6.13;;;3.57;;
8871;SDS011;4472;52.092;9.820;2023-10-09T00:55:18;7.40;;;3.70;;
8871;SDS011;4472;52.092;9.820;2023-10-09T00:58:13;8.57;;;3.33;;
8871;SDS011;4472;52.092;9.820;2023-10-09T01:01:16;8.73;;;3.30;;
8871;SDS011;4472;52.092;9.820;2023-10-09T01:04:04;10.93;;;4.90;;
8871;SDS011;4472;52.092;9.820;2023-10-09T01:06:53;3.83;;;3.40;;
8871;SDS011;4472;52.092;9.820;2023-10-09T01:09:53;7.93;;;3.83;;
8871;SDS011;4472;52.092;9.820;2023-10-09T01:12:43;6.33;;;3.80;;
8871;SDS011;4472;52.092;9.820;2023-10-09T01:15:34;8.20;;;3.80;;
8871;SDS011;4472;52.092;9.820;2023-10-09T01:18:29;4.10;;;2.97;;
8871;SDS011;4472;52.092;9.820;2023-10-09T01:21:21;5.80;;;2.97;;
8871;SDS011;4472;52.092;9.820;2023-10-09T01:24:12;6.73;;;3.57;;
8871;SDS011;4472;52.092;9.820;2023-10-09T01:27:01;4.40;;;3.33;;
8871;SDS011;4472;52.092;9.820;2023-10-09T01:29:50;7.83;;;3.53;;
8871;SDS011;4472;52.092;9.820;2023-10-09T01:32:38;5.60;;;3.10;;
8871;SDS011;4472;52.092;9.820;2023-10-09T01:35:26;5.87;;;3.40;;
8871;SDS011;4472;52.092;9.820;2023-10-09T01:38:18;6.77;;;3.57;;
8871;SDS011;4472;52.092;9.820;2023-10-09T01:41:17;7.73;;;3.70;;
8871;SDS011;4472;52.092;9.820;2023-10-09T01:44:05;5.47;;;3.53;;
8871;SDS011;4472;52.092;9.820;2023-10-09T01:46:57;7.67;;;3.50;;
8871;SDS011;4472;52.092;9.820;2023-10-09T01:49:44;6.00;;;4.00;;
8871;SDS011;4472;52.092;9.820;2023-10-09T01:52:34;7.00;;;4.10;;
8871;SDS011;4472;52.092;9.820;2023-10-09T01:55:23;6.63;;;4.17;;
8871;SDS011;4472;52.092;9.820;2023-10-09T01:58:19;12.57;;;4.07;;
8871;SDS011;4472;52.092;9.820;2023-10-09T02:01:10;6.57;;;3.93;;
8871;SDS011;4472;52.092;9.820;2023-10-09T02:03:58;6.17;;;3.80;;
8871;SDS011;4472;52.092;9.820;2023-10-09T02:06:51;10.10;;;4.60;;
8871;SDS011;4472;52.092;9.820;2023-10-09T02:09:38;5.77;;;3.83;;
8871;SDS011;4472;52.092;9.820;2023-10-09T02:12:32;6.90;;;3.80;;
8871;SDS011;4472;52.092;9.820;2023-10-09T02:15:21;6.40;;;3.70;;
8871;SDS011;4472;52.092;9.820;2023-10-09T02:18:26;6.40;;;3.80;;
8871;SDS011;4472;52.092;9.820;2023-10-09T02:21:25;8.10;;;4.17;;
8871;SDS011;4472;52.092;9.820;2023-10-09T02:24:18;7.17;;;4.70;;
8871;SDS011;4472;52.092;9.820;2023-10-09T02:27:27;8.07;;;4.43;;
8871;SDS011;4472;52.092;9.820;2023-10-09T02:30:32;11.10;;;5.43;;
8871;SDS011;4472;52.092;9.820;2023-10-09T02:33:19;7.80;;;4.40;;
8871;SDS011;4472;52.092;9.820;2023-10-09T02:36:13;10.43;;;5.17;;
8871;SDS011;4472;52.092;9.820;2023-10-09T02:39:00;10.00;;;5.30;;
8871;SDS011;4472;52.092;9.820;2023-10-09T02:41:51;7.67;;;5.20;;
8871;SDS011;4472;52.092;9.820;2023-10-09T02:44:40;13.03;;;5.60;;
8871;SDS011;4472;52.092;9.820;2023-10-09T02:47:33;9.27;;;5.57;;
8871;SDS011;4472;52.092;9.820;2023-10-09T02:50:24;12.10;;;5.67;;
8871;SDS011;4472;52.092;9.820;2023-10-09T02:53:13;8.63;;;5.03;;
8871;SDS011;4472;52.092;9.820;2023-10-09T02:56:04;12.60;;;6.27;;
8871;SDS011;4472;52.092;9.820;2023-10-09T02:58:58;11.23;;;6.57;;
8871;SDS011;4472;52.092;9.820;2023-10-09T03:01:51;12.83;;;6.97;;
8871;SDS011;4472;52.092;9.820;2023-10-09T03:04:40;13.03;;;6.57;;
8871;SDS011;4472;52.092;9.820;2023-10-09T03:07:28;12.23;;;6.60;;
8871;SDS011;4472;52.092;9.820;2023-10-09T03:10:15;12.40;;;7.27;;
8871;SDS011;4472;52.092;9.820;2023-10-09T03:13:03;15.33;;;7.27;;
8871;SDS011;4472;52.092;9.820;2023-10-09T03:15:50;14.40;;;7.50;;
8871;SDS011;4472;52.092;9.820;2023-10-09T03:18:38;15.53;;;6.83;;
8871;SDS011;4472;52.092;9.820;2023-10-09T03:21:26;14.63;;;7.73;;
8871;SDS011;4472;52.092;9.820;2023-10-09T03:24:14;14.23;;;7.87;;
8871;SDS011;4472;52.092;9.820;2023-10-09T03:27:01;14.80;;;8.00;;
8871;SDS011;4472;52.092;9.820;2023-10-09T03:29:48;18.33;;;8.00;;
8871;SDS011;4472;52.092;9.820;2023-10-09T03:32:39;14.73;;;7.40;;
8871;SDS011;4472;52.092;9.820;2023-10-09T03:35:26;15.17;;;7.97;;
8871;SDS011;4472;52.092;9.820;2023-10-09T03:38:14;14.93;;;7.73;;
8871;SDS011;4472;52.092;9.820;2023-10-09T03:41:04;18.90;;;8.67;;
8871;SDS011;4472;52.092;9.820;2023-10-09T03:43:52;15.80;;;8.87;;
8871;SDS011;4472;52.092;9.820;2023-10-09T03:46:40;17.53;;;9.47;;
8871;SDS011;4472;52.092;9.820;2023-10-09T03:49:29;11.47;;;7.13;;
8871;SDS011;4472;52.092;9.820;2023-10-09T03:52:17;20.67;;;9.20;;
8871;SDS011;4472;52.092;9.820;2023-10-09T03:55:06;20.37;;;9.60;;
8871;SDS011;4472;52.092;9.820;2023-10-09T03:57:57;18.20;;;9.93;;
8871;SDS011;4472;52.092;9.820;2023-10-09T04:00:45;20.67;;;10.40;;
8871;SDS011;4472;52.092;9.820;2023-10-09T04:03:34;21.33;;;11.23;;
8871;SDS011;4472;52.092;9.820;2023-10-09T04:06:22;20.43;;;10.60;;
8871;SDS011;4472;52.092;9.820;2023-10-09T04:09:14;12.87;;;7.63;;
8871;SDS011;4472;52.092;9.820;2023-10-09T04:12:15;13.67;;;7.27;;
8871;SDS011;4472;52.092;9.820;2023-10-09T04:15:10;21.90;;;12.67;;
8871;SDS011;4472;52.092;9.820;2023-10-09T04:18:00;21.37;;;11.77;;
8871;SDS011;4472;52.092;9.820;2023-10-09T04:20:49;21.27;;;12.20;;
8871;SDS011;4472;52.092;9.820;2023-10-09T04:23:53;24.77;;;13.33;;
8871;SDS011;4472;52.092;9.820;2023-10-09T04:26:55;14.63;;;8.33;;
8871;SDS011;4472;52.092;9.820;2023-10-09T04:29:49;29.27;;;14.50;;
8871;SDS011;4472;52.092;9.820;2023-10-09T04:32:36;29.90;;;16.23;;
8871;SDS011;4472;52.092;9.820;2023-10-09T04:35:29;32.97;;;18.60;;
8871;SDS011;4472;52.092;9.820;2023-10-09T04:38:18;33.77;;;16.97;;
8871;SDS011;4472;52.092;9.820;2023-10-09T04:41:08;32.77;;;18.20;;
8871;SDS011;4472;52.092;9.820;2023-10-09T04:44:08;27.87;;;14.73;;
8871;SDS011;4472;52.092;9.820;2023-10-09T04:47:05;32.13;;;18.20;;
8871;SDS011;4472;52.092;9.820;2023-10-09T04:50:05;27.97;;;13.53;;
8871;SDS011;4472;52.092;9.820;2023-10-09T04:52:55;31.87;;;18.93;;
8871;SDS011;4472;52.092;9.820;2023-10-09T04:55:41;34.73;;;19.23;;
8871;SDS011;4472;52.092;9.820;2023-10-09T04:58:39;34.60;;;19.10;;
8871;SDS011;4472;52.092;9.820;2023-10-09T05:01:26;36.83;;;19.13;;
8871;SDS011;4472;52.092;9.820;2023-10-09T05:04:22;37.23;;;20.67;;
8871;SDS011;4472;52.092;9.820;2023-10-09T05:07:24;37.43;;;19.60;;
8871;SDS011;4472;52.092;9.820;2023-10-09T05:10:31;37.73;;;19.43;;
8871;SDS011;4472;52.092;9.820;2023-10-09T05:13:18;36.83;;;19.80;;
8871;SDS011;4472;52.092;9.820;2023-10-09T05:16:25;36.83;;;18.97;;
8871;SDS011;4472;52.092;9.820;2023-10-09T05:19:14;35.10;;;18.83;;
8871;SDS011;4472;52.092;9.820;2023-10-09T05:22:20;36.10;;;18.30;;
8871;SDS011;4472;52.092;9.820;2023-10-09T05:25:21;32.77;;;17.17;;
8871;SDS011;4472;52.092;9.820;2023-10-09T05:28:31;32.57;;;18.43;;
8871;SDS011;4472;52.092;9.820;2023-10-09T05:31:21;32.23;;;18.17;;
8871;SDS011;4472;52.092;9.820;2023-10-09T05:34:41;39.77;;;18.43;;
8871;SDS011;4472;52.092;9.820;2023-10-09T05:37:46;35.87;;;18.83;;
8871;SDS011;4472;52.092;9.820;2023-10-09T05:40:40;34.10;;;18.87;;
8871;SDS011;4472;52.092;9.820;2023-10-09T05:43:29;32.90;;;18.47;;
8871;SDS011;4472;52.092;9.820;2023-10-09T05:46:33;39.10;;;18.87;;
8871;SDS011;4472;52.092;9.820;2023-10-09T05:49:22;42.43;;;20.07;;
8871;SDS011;4472;52.092;9.820;2023-10-09T05:52:10;40.40;;;20.40;;
8871;SDS011;4472;52.092;9.820;2023-10-09T05:55:12;35.40;;;20.53;;
8871;SDS011;4472;52.092;9.820;2023-10-09T05:58:22;43.23;;;21.87;;
8871;SDS011;4472;52.092;9.820;2023-10-09T06:01:27;41.10;;;21.43;;
8871;SDS011;4472;52.092;9.820;2023-10-09T06:04:28;42.43;;;22.10;;
8871;SDS011;4472;52.092;9.820;2023-10-09T06:07:34;40.37;;;21.23;;
8871;SDS011;4472;52.092;9.820;2023-10-09T06:10:48;47.53;;;23.33;;
8871;SDS011;4472;52.092;9.820;2023-10-09T06:13:46;54.47;;;25.00;;
8871;SDS011;4472;52.092;9.820;2023-10-09T06:16:41;52.10;;;24.40;;
8871;SDS011;4472;52.092;9.820;2023-10-09T06:19:29;43.93;;;22.87;;
8871;SDS011;4472;52.092;9.820;2023-10-09T06:22:17;44.57;;;24.27;;
8871;SDS011;4472;52.092;9.820;2023-10-09T06:25:21;44.43;;;23.47;;
8871;SDS011;4472;52.092;9.820;2023-10-09T06:28:19;54.97;;;24.43;;
8871;SDS011;4472;52.092;9.820;2023-10-09T06:31:18;56.87;;;25.57;;
8871;SDS011;4472;52.092;9.820;2023-10-09T06:34:32;48.93;;;25.53;;
8871;SDS011;4472;52.092;9.820;2023-10-09T06:37:20;50.10;;;25.00;;
8871;SDS011;4472;52.092;9.820;2023-10-09T06:40:23;46.87;;;24.80;;
8871;SDS011;4472;52.092;9.820;2023-10-09T06:43:31;52.47;;;25.43;;
8871;SDS011;4472;52.092;9.820;2023-10-09T06:46:22;43.23;;;23.77;;
8871;SDS011;4472;52.092;9.820;2023-10-09T06:49:23;44.17;;;24.43;;
8871;SDS011;4472;52.092;9.820;2023-10-09T06:52:21;46.70;;;23.93;;
8871;SDS011;4472;52.092;9.820;2023-10-09T06:55:35;41.30;;;24.23;;
8871;SDS011;4472;52.092;9.820;2023-10-09T06:58:34;47.00;;;23.97;;
8871;SDS011;4472;52.092;9.820;2023-10-09T07:01:28;49.70;;;24.73;;
8871;SDS011;4472;52.092;9.820;2023-10-09T07:04:28;45.57;;;24.97;;
8871;SDS011;4472;52.092;9.820;2023-10-09T07:07:29;47.83;;;24.87;;
8871;SDS011;4472;52.092;9.820;2023-10-09T07:10:21;45.33;;;24.70;;
8871;SDS011;4472;52.092;9.820;2023-10-09T07:13:18;45.40;;;23.50;;
8871;SDS011;4472;52.092;9.820;2023-10-09T07:16:11;43.17;;;23.63;;
8871;SDS011;4472;52.092;9.820;2023-10-09T07:19:09;43.07;;;23.50;;
8871;SDS011;4472;52.092;9.820;2023-10-09T07:22:17;46.23;;;24.03;;
8871;SDS011;4472;52.092;9.820;2023-10-09T07:25:08;49.67;;;22.83;;
8871;SDS011;4472;52.092;9.820;2023-10-09T07:28:13;46.80;;;23.83;;
8871;SDS011;4472;52.092;9.820;2023-10-09T07:31:20;40.83;;;22.60;;
8871;SDS011;4472;52.092;9.820;2023-10-09T07:34:24;40.93;;;22.50;;
8871;SDS011;4472;52.092;9.820;2023-10-09T07:37:38;42.27;;;23.97;;
8871;SDS011;4472;52.092;9.820;2023-10-09T07:40:27;47.40;;;24.47;;
8871;SDS011;4472;52.092;9.820;2023-10-09T07:43:17;46.07;;;25.13;;
8871;SDS011;4472;52.092;9.820;2023-10-09T07:46:04;48.33;;;25.07;;
8871;SDS011;4472;52.092;9.820;2023-10-09T07:49:10;50.90;;;25.77;;
8871;SDS011;4472;52.092;9.820;2023-10-09T07:51:59;51.27;;;26.40;;
8871;SDS011;4472;52.092;9.820;2023-10-09T07:54:47;51.27;;;26.30;;
8871;SDS011;4472;52.092;9.820;2023-10-09T07:57:46;56.67;;;26.63;;
8871;SDS011;4472;52.092;9.820;2023-10-09T08:00:37;54.97;;;26.50;;
8871;SDS011;4472;52.092;9.820;2023-10-09T08:03:51;52.83;;;26.37;;
8871;SDS011;4472;52.092;9.820;2023-10-09T08:06:48;54.27;;;26.23;;
8871;SDS011;4472;52.092;9.820;2023-10-09T08:09:36;53.87;;;26.57;;
8871;SDS011;4472;52.092;9.820;2023-10-09T08:12:31;48.67;;;25.83;;
8871;SDS011;4472;52.092;9.820;2023-10-09T08:15:42;48.20;;;26.13;;
8871;SDS011;4472;52.092;9.820;2023-10-09T08:18:37;53.77;;;26.30;;
8871;SDS011;4472;52.092;9.820;2023-10-09T08:21:30;49.43;;;26.13;;
8871;SDS011;4472;52.092;9.820;2023-10-09T08:24:31;50.37;;;25.60;;
8871;SDS011;4472;52.092;9.820;2023-10-09T08:27:27;44.20;;;24.40;;
8871;SDS011;4472;52.092;9.820;2023-10-09T08:30:30;55.73;;;26.47;;
8871;SDS011;4472;52.092;9.820;2023-10-09T08:33:31;47.93;;;26.47;;
8871;SDS011;4472;52.092;9.820;2023-10-09T08:36:26;43.97;;;25.27;;
8871;SDS011;4472;52.092;9.820;2023-10-09T08:39:21;48.57;;;26.60;;
8871;SDS011;4472;52.092;9.820;2023-10-09T08:42:20;48.00;;;24.57;;
8871;SDS011;4472;52.092;9.820;2023-10-09T08:45:09;45.73;;;25.73;;
8871;SDS011;4472;52.092;9.820;2023-10-09T08:48:00;43.17;;;24.10;;
8871;SDS011;4472;52.092;9.820;2023-10-09T08:50:50;42.53;;;24.00;;
8871;SDS011;4472;52.092;9.820;2023-10-09T08:53:39;42.77;;;23.90;;
8871;SDS011;4472;52.092;9.820;2023-10-09T08:56:28;39.87;;;23.53;;
8871;SDS011;4472;52.092;9.820;2023-10-09T08:59:18;34.03;;;20.53;;
8871;SDS011;4472;52.092;9.820;2023-10-09T09:02:05;36.80;;;21.40;;
8871;SDS011;4472;52.092;9.820;2023-10-09T09:04:56;32.50;;;20.07;;
8871;SDS011;4472;52.092;9.820;2023-10-09T09:07:44;32.57;;;18.27;;
8871;SDS011;4472;52.092;9.820;2023-10-09T09:10:31;33.73;;;19.63;;
8871;SDS011;4472;52.092;9.820;2023-10-09T09:13:24;34.83;;;21.27;;
8871;SDS011;4472;52.092;9.820;2023-10-09T09:16:19;37.40;;;20.47;;
8871;SDS011;4472;52.092;9.820;2023-10-09T09:19:07;36.37;;;21.53;;
8871;SDS011;4472;52.092;9.820;2023-10-09T09:22:03;33.53;;;20.57;;
8871;SDS011;4472;52.092;9.820;2023-10-09T09:24:58;32.57;;;18.70;;
8871;SDS011;4472;52.092;9.820;2023-10-09T09:27:54;33.00;;;18.23;;
8871;SDS011;4472;52.092;9.820;2023-10-09T09:30:55;30.97;;;19.00;;
8871;SDS011;4472;52.092;9.820;2023-10-09T09:33:59;31.60;;;19.77;;
8871;SDS011;4472;52.092;9.820;2023-10-09T09:36:49;36.80;;;20.73;;
8871;SDS011;4472;52.092;9.820;2023-10-09T09:39:39;36.23;;;19.87;;
8871;SDS011;4472;52.092;9.820;2023-10-09T09:42:28;32.27;;;20.17;;
8871;SDS011;4472;52.092;9.820;2023-10-09T09:45:18;34.70;;;21.07;;
8871;SDS011;4472;52.092;9.820;2023-10-09T09:48:08;33.53;;;21.30;;
8871;SDS011;4472;52.092;9.820;2023-10-09T09:51:02;33.00;;;21.60;;
8871;SDS011;4472;52.092;9.820;2023-10-09T09:53:51;36.00;;;21.67;;
8871;SDS011;4472;52.092;9.820;2023-10-09T09:56:39;33.30;;;22.00;;
8871;SDS011;4472;52.092;9.820;2023-10-09T09:59:37;32.07;;;22.23;;
8871;SDS011;4472;52.092;9.820;2023-10-09T10:02:35;36.23;;;24.93;;
8871;SDS011;4472;52.092;9.820;2023-10-09T10:05:24;38.93;;;23.50;;
8871;SDS011;4472;52.092;9.820;2023-10-09T10:08:17;38.03;;;24.33;;
8871;SDS011;4472;52.092;9.820;2023-10-09T10:11:44;42.47;;;26.97;;
8871;SDS011;4472;52.092;9.820;2023-10-09T10:14:36;36.23;;;25.33;;
8871;SDS011;4472;52.092;9.820;2023-10-09T10:17:52;34.33;;;23.60;;
8871;SDS011;4472;52.092;9.820;2023-10-09T10:21:10;31.60;;;21.97;;
8871;SDS011;4472;52.092;9.820;2023-10-09T10:24:05;27.20;;;19.73;;
8871;SDS011;4472;52.092;9.820;2023-10-09T10:27:39;28.97;;;18.90;;
8871;SDS011;4472;52.092;9.820;2023-10-09T10:30:46;26.30;;;18.40;;
8871;SDS011;4472;52.092;9.820;2023-10-09T10:36:56;22.30;;;16.63;;
8871;SDS011;4472;52.092;9.820;2023-10-09T10:39:49;20.63;;;15.97;;
8871;SDS011;4472;52.092;9.820;2023-10-09T10:42:46;21.50;;;15.53;;
8871;SDS011;4472;52.092;9.820;2023-10-09T10:45:51;32.70;;;16.90;;
8871;SDS011;4472;52.092;9.820;2023-10-09T10:48:47;23.00;;;17.63;;
8871;SDS011;4472;52.092;9.820;2023-10-09T10:51:35;25.03;;;17.30;;
8871;SDS011;4472;52.092;9.820;2023-10-09T10:54:24;28.50;;;19.97;;
8871;SDS011;4472;52.092;9.820;2023-10-09T10:57:28;24.43;;;19.20;;
8871;SDS011;4472;52.092;9.820;2023-10-09T11:00:24;24.83;;;19.93;;
8871;SDS011;4472;52.092;9.820;2023-10-09T11:03:38;29.73;;;22.50;;
8871;SDS011;4472;52.092;9.820;2023-10-09T11:06:40;38.57;;;25.87;;
8871;SDS011;4472;52.092;9.820;2023-10-09T11:09:28;39.87;;;27.67;;
8871;SDS011;4472;52.092;9.820;2023-10-09T11:12:43;40.03;;;27.97;;
8871;SDS011;4472;52.092;9.820;2023-10-09T11:15:52;40.23;;;28.17;;
8871;SDS011;4472;52.092;9.820;2023-10-09T11:19:00;37.33;;;28.87;;
8871;SDS011;4472;52.092;9.820;2023-10-09T11:21:58;36.23;;;27.17;;
8871;SDS011;4472;52.092;9.820;2023-10-09T11:25:00;45.23;;;30.57;;
8871;SDS011;4472;52.092;9.820;2023-10-09T11:27:57;54.00;;;35.20;;
8871;SDS011;4472;52.092;9.820;2023-10-09T11:31:08;45.33;;;32.40;;
8871;SDS011;4472;52.092;9.820;2023-10-09T11:33:56;49.83;;;34.30;;
8871;SDS011;4472;52.092;9.820;2023-10-09T11:36:46;54.67;;;35.10;;
8871;SDS011;4472;52.092;9.820;2023-10-09T11:39:38;52.47;;;35.43;;
8871;SDS011;4472;52.092;9.820;2023-10-09T11:42:36;61.20;;;38.20;;
8871;SDS011;4472;52.092;9.820;2023-10-09T11:45:24;54.77;;;35.90;;
8871;SDS011;4472;52.092;9.820;2023-10-09T11:48:19;56.30;;;37.77;;
8871;SDS011;4472;52.092;9.820;2023-10-09T11:51:13;50.57;;;36.10;;
8871;SDS011;4472;52.092;9.820;2023-10-09T11:54:04;54.00;;;36.63;;
8871;SDS011;4472;52.092;9.820;2023-10-09T11:56:54;58.57;;;37.47;;
8871;SDS011;4472;52.092;9.820;2023-10-09T11:59:40;59.73;;;37.63;;
8871;SDS011;4472;52.092;9.820;2023-10-09T12:02:28;59.63;;;38.70;;
8871;SDS011;4472;52.092;9.820;2023-10-09T12:05:18;63.90;;;42.73;;
8871;SDS011;4472;52.092;9.820;2023-10-09T12:08:05;61.43;;;38.43;;
8871;SDS011;4472;52.092;9.820;2023-10-09T12:10:54;54.13;;;37.07;;
8871;SDS011;4472;52.092;9.820;2023-10-09T12:13:42;47.87;;;33.93;;
8871;SDS011;4472;52.092;9.820;2023-10-09T12:16:29;42.70;;;31.20;;
8871;SDS011;4472;52.092;9.820;2023-10-09T12:19:18;34.60;;;24.90;;
8871;SDS011;4472;52.092;9.820;2023-10-09T12:22:07;30.07;;;22.27;;
8871;SDS011;4472;52.092;9.820;2023-10-09T12:24:56;25.40;;;19.07;;
8871;SDS011;4472;52.092;9.820;2023-10-09T12:27:43;20.93;;;16.60;;
8871;SDS011;4472;52.092;9.820;2023-10-09T12:30:30;20.07;;;15.77;;
8871;SDS011;4472;52.092;9.820;2023-10-09T12:33:25;17.77;;;14.53;;
8871;SDS011;4472;52.092;9.820;2023-10-09T12:36:13;18.20;;;14.20;;
8871;SDS011;4472;52.092;9.820;2023-10-09T12:39:06;18.53;;;15.87;;
8871;SDS011;4472;52.092;9.820;2023-10-09T12:42:02;19.33;;;15.73;;
8871;SDS011;4472;52.092;9.820;2023-10-09T12:44:53;23.03;;;17.70;;
8871;SDS011;4472;52.092;9.820;2023-10-09T12:47:43;21.63;;;17.70;;
8871;SDS011;4472;52.092;9.820;2023-10-09T12:50:33;24.20;;;18.13;;
8871;SDS011;4472;52.092;9.820;2023-10-09T12:53:20;30.20;;;21.40;;
8871;SDS011;4472;52.092;9.820;2023-10-09T12:56:09;22.90;;;19.47;;
8871;SDS011;4472;52.092;9.820;2023-10-09T12:58:57;26.73;;;19.73;;
8871;SDS011;4472;52.092;9.820;2023-10-09T13:01:46;22.60;;;19.47;;
8871;SDS011;4472;52.092;9.820;2023-10-09T13:04:37;24.13;;;19.10;;
8871;SDS011;4472;52.092;9.820;2023-10-09T13:07:27;23.90;;;19.70;;
8871;SDS011;4472;52.092;9.820;2023-10-09T13:10:14;22.93;;;19.17;;
8871;SDS011;4472;52.092;9.820;2023-10-09T13:13:06;27.00;;;20.00;;
8871;SDS011;4472;52.092;9.820;2023-10-09T13:15:57;26.80;;;20.03;;
8871;SDS011;4472;52.092;9.820;2023-10-09T13:18:44;26.60;;;20.10;;
8871;SDS011;4472;52.092;9.820;2023-10-09T13:21:35;24.63;;;19.83;;
8871;SDS011;4472;52.092;9.820;2023-10-09T13:24:24;22.87;;;19.00;;
8871;SDS011;4472;52.092;9.820;2023-10-09T13:27:15;26.37;;;19.90;;
8871;SDS011;4472;52.092;9.820;2023-10-09T13:30:08;27.37;;;21.23;;
8871;SDS011;4472;52.092;9.820;2023-10-09T13:33:07;26.73;;;20.10;;
8871;SDS011;4472;52.092;9.820;2023-10-09T13:36:00;26.73;;;20.47;;
8871;SDS011;4472;52.092;9.820;2023-10-09T13:38:48;23.50;;;19.43;;
8871;SDS011;4472;52.092;9.820;2023-10-09T13:41:35;28.93;;;19.20;;
8871;SDS011;4472;52.092;9.820;2023-10-09T13:44:26;22.03;;;18.50;;
8871;SDS011;4472;52.092;9.820;2023-10-09T13:47:15;26.00;;;18.80;;
8871;SDS011;4472;52.092;9.820;2023-10-09T13:50:07;23.33;;;17.50;;
8871;SDS011;4472;52.092;9.820;2023-10-09T13:52:55;23.00;;;18.53;;
8871;SDS011;4472;52.092;9.820;2023-10-09T13:55:43;26.30;;;18.40;;
8871;SDS011;4472;52.092;9.820;2023-10-09T13:58:30;24.43;;;18.30;;
8871;SDS011;4472;52.092;9.820;2023-10-09T14:01:18;24.00;;;17.97;;
8871;SDS011;4472;52.092;9.820;2023-10-09T14:04:14;23.70;;;18.03;;
8871;SDS011;4472;52.092;9.820;2023-10-09T14:07:04;21.30;;;16.90;;
8871;SDS011;4472;52.092;9.820;2023-10-09T14:09:52;21.60;;;18.07;;
8871;SDS011;4472;52.092;9.820;2023-10-09T14:12:52;26.23;;;18.47;;
8871;SDS011;4472;52.092;9.820;2023-10-09T14:15:42;26.90;;;18.20;;
8871;SDS011;4472;52.092;9.820;2023-10-09T14:18:31;28.43;;;19.83;;
8871;SDS011;4472;52.092;9.820;2023-10-09T14:21:20;26.17;;;19.53;;
8871;SDS011;4472;52.092;9.820;2023-10-09T14:24:10;28.70;;;19.70;;
8871;SDS011;4472;52.092;9.820;2023-10-09T14:27:01;28.20;;;20.33;;
8871;SDS011;4472;52.092;9.820;2023-10-09T14:29:52;25.83;;;20.37;;
8871;SDS011;4472;52.092;9.820;2023-10-09T14:32:41;28.37;;;19.60;;
8871;SDS011;4472;52.092;9.820;2023-10-09T14:35:36;23.67;;;18.87;;
8871;SDS011;4472;52.092;9.820;2023-10-09T14:38:29;25.57;;;19.50;;
8871;SDS011;4472;52.092;9.820;2023-10-09T14:41:19;31.13;;;23.37;;
8871;SDS011;4472;52.092;9.820;2023-10-09T14:44:08;29.83;;;21.40;;
8871;SDS011;4472;52.092;9.820;2023-10-09T14:47:01;32.30;;;20.93;;
8871;SDS011;4472;52.092;9.820;2023-10-09T14:49:50;27.77;;;20.57;;
8871;SDS011;4472;52.092;9.820;2023-10-09T14:52:39;30.20;;;20.53;;
8871;SDS011;4472;52.092;9.820;2023-10-09T14:55:27;27.80;;;19.93;;
8871;SDS011;4472;52.092;9.820;2023-10-09T14:58:17;29.23;;;21.30;;
8871;SDS011;4472;52.092;9.820;2023-10-09T15:01:07;29.67;;;20.17;;
8871;SDS011;4472;52.092;9.820;2023-10-09T15:03:58;26.90;;;19.90;;
8871;SDS011;4472;52.092;9.820;2023-10-09T15:06:46;24.27;;;20.63;;
8871;SDS011;4472;52.092;9.820;2023-10-09T15:09:43;26.17;;;20.33;;
8871;SDS011;4472;52.092;9.820;2023-10-09T15:12:32;27.77;;;21.23;;
8871;SDS011;4472;52.092;9.820;2023-10-09T15:15:24;27.30;;;20.43;;
8871;SDS011;4472;52.092;9.820;2023-10-09T15:18:25;29.37;;;21.30;;
8871;SDS011;4472;52.092;9.820;2023-10-09T15:21:14;25.80;;;20.17;;
8871;SDS011;4472;52.092;9.820;2023-10-09T15:24:02;32.23;;;23.03;;
8871;SDS011;4472;52.092;9.820;2023-10-09T15:26:51;31.30;;;21.23;;
8871;SDS011;4472;52.092;9.820;2023-10-09T15:29:42;31.77;;;22.30;;
8871;SDS011;4472;52.092;9.820;2023-10-09T15:32:30;30.23;;;22.13;;
8871;SDS011;4472;52.092;9.820;2023-10-09T15:35:20;31.17;;;22.13;;
8871;SDS011;4472;52.092;9.820;2023-10-09T15:38:08;26.60;;;20.30;;
8871;SDS011;4472;52.092;9.820;2023-10-09T15:40:59;28.30;;;21.43;;
8871;SDS011;4472;52.092;9.820;2023-10-09T15:43:46;26.53;;;20.17;;
8871;SDS011;4472;52.092;9.820;2023-10-09T15:46:34;28.77;;;21.67;;
8871;SDS011;4472;52.092;9.820;2023-10-09T15:49:22;28.27;;;21.43;;
8871;SDS011;4472;52.092;9.820;2023-10-09T15:52:09;25.53;;;19.20;;
8871;SDS011;4472;52.092;9.820;2023-10-09T15:54:59;28.37;;;20.73;;
8871;SDS011;4472;52.092;9.820;2023-10-09T15:57:46;23.87;;;18.27;;
8871;SDS011;4472;52.092;9.820;2023-10-09T16:00:34;21.90;;;17.30;;
8871;SDS011;4472;52.092;9.820;2023-10-09T16:03:24;24.63;;;17.07;;
8871;SDS011;4472;52.092;9.820;2023-10-09T16:06:12;19.33;;;14.17;;
8871;SDS011;4472;52.092;9.820;2023-10-09T16:09:01;21.33;;;14.67;;
8871;SDS011;4472;52.092;9.820;2023-10-09T16:11:51;18.00;;;13.40;;
8871;SDS011;4472;52.092;9.820;2023-10-09T16:14:39;22.67;;;14.07;;
8871;SDS011;4472;52.092;9.820;2023-10-09T16:17:27;21.30;;;14.03;;
8871;SDS011;4472;52.092;9.820;2023-10-09T16:20:16;18.87;;;12.57;;
8871;SDS011;4472;52.092;9.820;2023-10-09T16:23:06;19.77;;;15.10;;
8871;SDS011;4472;52.092;9.820;2023-10-09T16:25:55;21.20;;;14.80;;
8871;SDS011;4472;52.092;9.820;2023-10-09T16:28:45;24.50;;;16.50;;
8871;SDS011;4472;52.092;9.820;2023-10-09T16:31:33;26.23;;;18.00;;
8871;SDS011;4472;52.092;9.820;2023-10-09T16:34:21;26.40;;;17.97;;
8871;SDS011;4472;52.092;9.820;2023-10-09T16:37:13;24.37;;;17.87;;
8871;SDS011;4472;52.092;9.820;2023-10-09T16:40:01;24.00;;;17.17;;
8871;SDS011;4472;52.092;9.820;2023-10-09T16:42:51;19.87;;;14.70;;
8871;SDS011;4472;52.092;9.820;2023-10-09T16:45:39;19.47;;;14.13;;
8871;SDS011;4472;52.092;9.820;2023-10-09T16:48:29;20.23;;;15.00;;
8871;SDS011;4472;52.092;9.820;2023-10-09T16:51:16;19.33;;;14.60;;
8871;SDS011;4472;52.092;9.820;2023-10-09T16:54:08;17.33;;;13.70;;
8871;SDS011;4472;52.092;9.820;2023-10-09T16:57:00;20.77;;;13.73;;
8871;SDS011;4472;52.092;9.820;2023-10-09T16:59:47;21.03;;;12.93;;
8871;SDS011;4472;52.092;9.820;2023-10-09T17:02:37;20.23;;;12.60;;
8871;SDS011;4472;52.092;9.820;2023-10-09T17:05:25;18.60;;;12.07;;
8871;SDS011;4472;52.092;9.820;2023-10-09T17:08:18;20.37;;;13.00;;
8871;SDS011;4472;52.092;9.820;2023-10-09T17:11:07;20.67;;;13.03;;
8871;SDS011;4472;52.092;9.820;2023-10-09T17:13:57;16.03;;;12.03;;
8871;SDS011;4472;52.092;9.820;2023-10-09T17:16:44;17.17;;;11.60;;
8871;SDS011;4472;52.092;9.820;2023-10-09T17:19:32;17.27;;;11.70;;
8871;SDS011;4472;52.092;9.820;2023-10-09T17:22:23;19.80;;;12.23;;
8871;SDS011;4472;52.092;9.820;2023-10-09T17:25:10;18.13;;;13.23;;
8871;SDS011;4472;52.092;9.820;2023-10-09T17:27:58;19.73;;;13.80;;
8871;SDS011;4472;52.092;9.820;2023-10-09T17:30:46;17.90;;;12.70;;
8871;SDS011;4472;52.092;9.820;2023-10-09T17:33:34;23.87;;;13.47;;